Time;durP1;ratioP1;P1;durP2;ratioP2;P2;SDS_P1;SDS_P2;PMS_P1;PMS_P2;Temp;Humidity;BMP_temperature;BMP_pressure;BME280_temperature;BME280_humidity;BME280_pressure;Samples;Min_cycle;Max_cycle;Signal;HPM_P1;HPM_P2
2023/08/13 00:01:09;;;;;;;;;;;;;;;14.69;94.07;101547.28;4886815;29;20036;-74
2023/08/13 00:03:34;;;;;;;5.50;3.00;;;;;;;14.68;93.92;101555.66;4875027;29;19920;-74
2023/08/13 00:06:00;;;;;;;;;;;;;;;14.69;94.44;101562.66;4872679;29;20763;-73
2023/08/13 00:08:25;;;;;;;7.20;3.80;;;;;;;14.67;94.38;101562.16;4869608;29;19919;-72
2023/08/13 00:10:50;;;;;;;;;;;;;;;14.68;94.38;101555.66;4886607;29;20107;-73
2023/08/13 00:13:16;;;;;;;5.85;3.83;;;;;;;14.64;94.48;101560.03;4886178;29;20042;-73
2023/08/13 00:15:42;;;;;;;;;;;;;;;14.62;94.37;101562.16;4872372;29;20089;-73
2023/08/13 00:18:10;;;;;;;6.03;3.25;;;;;;;14.59;94.18;101552.75;4866074;29;19926;-74
2023/08/13 00:20:36;;;;;;;9.43;3.83;;;;;;;14.58;94.12;101555.72;4901389;29;20061;-75
2023/08/13 00:23:02;;;;;;;;;;;;;;;14.54;94.22;101554.66;4869299;29;20220;-74
2023/08/13 00:25:33;;;;;;;6.85;3.15;;;;;;;14.51;94.28;101557.91;4876295;29;19923;-74
2023/08/13 00:28:02;;;;;;;8.65;3.40;;;;;;;14.47;93.78;101560.34;4879788;29;20882;-74
2023/08/13 00:30:28;;;;;;;5.95;3.15;;;;;;;14.47;93.95;101554.94;4867860;29;20092;-73
2023/08/13 00:32:53;;;;;;;;;;;;;;;14.45;94.16;101562.47;4862236;29;20451;-74
2023/08/13 00:35:19;;;;;;;6.28;3.33;;;;;;;14.42;94.18;101554.94;4875864;29;20046;-73
2023/08/13 00:37:45;;;;;;;7.57;3.40;;;;;;;14.39;93.93;101548.22;4884177;29;20037;-72
2023/08/13 00:40:10;;;;;;;;;;;;;;;14.38;94.26;101554.69;4898843;29;20833;-73
2023/08/13 00:42:36;;;;;;;5.88;3.05;;;;;;;14.32;94.49;101558.47;4890942;29;19923;-73
2023/08/13 00:45:02;;;;;;;6.15;3.13;;;;;;;14.30;94.39;101555.25;4886053;29;20426;-73
2023/08/13 00:47:28;;;;;;;6.38;3.83;;;;;;;14.32;94.03;101560.38;4884951;29;20029;-72
2023/08/13 00:49:54;;;;;;;;;;;;;;;14.29;94.19;101559.00;4886947;29;20700;-72
2023/08/13 00:52:20;;;;;;;5.75;3.13;;;;;;;14.24;93.95;101556.34;4888396;29;19923;-73
2023/08/13 00:54:46;;;;;;;;;;;;;;;14.22;93.90;101563.88;4872638;29;20040;-74
2023/08/13 00:57:12;;;;;;;6.05;3.08;;;;;;;14.17;93.70;101566.63;4886742;29;20309;-74
2023/08/13 00:59:39;;;;;;;6.65;2.83;;;;;;;14.15;94.04;101563.38;4889611;29;20031;-72
2023/08/13 01:02:05;;;;;;;7.72;2.70;;;;;;;14.14;93.88;101559.06;4886201;29;20649;-73
2023/08/13 01:04:31;;;;;;;4.72;3.03;;;;;;;14.14;93.97;101561.75;4907824;29;20051;-72
2023/08/13 01:07:03;;;;;;;;;;;;;;;14.10;93.98;101569.59;4869997;29;20043;-73
2023/08/13 01:09:40;;;;;;;7.18;2.92;;;;;;;14.07;94.21;101569.31;4887025;29;19919;-72
2023/08/13 01:12:21;;;;;;;6.85;2.78;;;;;;;14.06;94.05;101570.41;4856586;29;20044;-73
2023/08/13 01:14:59;;;;;;;5.00;2.55;;;;;;;14.06;93.93;101565.00;4872943;29;20036;-73
2023/08/13 01:17:26;;;;;;;4.07;2.83;;;;;;;14.05;93.28;101571.47;4858882;29;20473;-75
2023/08/13 01:19:51;;;;;;;4.97;2.53;;;;;;;14.04;93.67;101567.19;4872091;29;20032;-74
2023/08/13 01:22:21;;;;;;;;;;;;;;;14.01;93.64;101578.47;4888476;29;20077;-73
2023/08/13 01:24:47;;;;;;;7.18;2.72;;;;;;;14.00;93.95;101576.88;4861336;29;20464;-73
2023/08/13 01:27:34;;;;;;;;;;;;;;;13.98;94.17;101579.03;4885843;29;20092;-73
2023/08/13 01:30:15;;;;;;;3.17;2.38;;;;;;;13.94;94.02;101584.94;4886655;29;20313;-74
2023/08/13 01:32:54;;;;;;;5.05;2.45;;;;;;;13.95;93.87;101580.38;4877310;29;20055;-73
2023/08/13 01:35:21;;;;;;;6.15;3.65;;;;;;;13.93;93.91;101580.66;4887125;29;20077;-74
2023/08/13 01:37:49;;;;;;;5.88;3.08;;;;;;;13.90;94.05;101588.47;4877604;29;20131;-75
2023/08/13 01:40:15;;;;;;;4.88;2.58;;;;;;;13.85;94.19;101581.19;4867591;29;20032;-73
2023/08/13 01:42:41;;;;;;;8.23;2.55;;;;;;;13.86;93.85;101574.75;4869755;29;20099;-72
2023/08/13 01:45:06;;;;;;;;;;;;;;;13.85;93.97;101580.41;4889831;29;20028;-73
2023/08/13 01:47:32;;;;;;;5.55;2.65;;;;;;;13.82;93.66;101576.38;4872968;29;19927;-75
2023/08/13 01:49:58;;;;;;;;;;;;;;;13.80;93.49;101578.50;4858520;29;20447;-74
2023/08/13 01:52:24;;;;;;;7.22;2.55;;;;;;;13.81;93.84;101580.13;4888256;29;20337;-73
2023/08/13 01:54:50;;;;;;;5.97;2.60;;;;;;;13.79;94.24;101581.47;4859113;29;20049;-74
2023/08/13 01:57:16;;;;;;;;;;;;;;;13.78;94.35;101583.38;4901362;29;20032;-72
2023/08/13 01:59:42;;;;;;;6.75;2.53;;;;;;;13.77;94.42;101579.06;4870324;29;19980;-72
2023/08/13 02:02:07;;;;;;;;;;;;;;;13.75;94.48;101585.78;4871462;29;20120;-73
2023/08/13 02:04:33;;;;;;;5.00;2.75;;;;;;;13.74;94.84;101582.28;4889674;29;19927;-72
2023/08/13 02:06:59;;;;;;;6.18;2.60;;;;;;;13.73;94.43;101583.38;4907158;29;20043;-74
2023/08/13 02:09:25;;;;;;;4.90;2.80;;;;;;;13.72;94.53;101592.50;4854099;29;20033;-73
2023/08/13 02:11:51;;;;;;;6.68;2.65;;;;;;;13.70;94.23;101583.91;4898983;29;20084;-73
2023/08/13 02:14:16;;;;;;;7.43;2.35;;;;;;;13.70;94.09;101585.81;4870510;29;20052;-73
2023/08/13 02:16:42;;;;;;;;;;;;;;;13.67;94.54;101584.44;4887377;29;20111;-72
2023/08/13 02:19:08;;;;;;;5.82;2.55;;;;;;;13.66;94.32;101588.22;4886372;29;19923;-74
2023/08/13 02:21:33;;;;;;;6.00;2.60;;;;;;;13.67;94.27;101597.91;4869851;29;20048;-73
2023/08/13 02:23:59;;;;;;;8.05;2.30;;;;;;;13.63;93.93;101591.44;4862910;29;20036;-73
2023/08/13 02:26:24;;;;;;;;;;;;;;;13.64;93.95;101587.69;4858129;29;20028;-74
2023/08/13 02:28:50;;;;;;;7.35;2.67;;;;;;;13.63;94.66;101591.44;4871692;29;19930;-72
2023/08/13 02:31:15;;;;;;;;;;;;;;;13.66;94.77;101588.22;4874129;29;20049;-73
2023/08/13 02:33:41;;;;;;;5.53;2.63;;;;;;;13.66;94.95;101591.72;4889954;29;20403;-74
2023/08/13 02:36:06;;;;;;;7.88;2.83;;;;;;;13.66;95.10;101599.78;4887755;29;20036;-73
2023/08/13 02:38:34;;;;;;;6.20;2.88;;;;;;;13.71;95.53;101588.22;4884308;29;20871;-73
2023/08/13 02:41:00;;;;;;;5.65;2.80;;;;;;;13.73;95.55;101594.13;4885254;29;20029;-73
2023/08/13 02:43:30;;;;;;;8.57;3.30;;;;;;;13.76;96.03;101593.59;4873912;29;20048;-73
2023/08/13 02:45:56;;;;;;;8.68;2.85;;;;;;;13.77;96.12;101591.72;4844132;29;20044;-73
2023/08/13 02:48:21;;;;;;;;;;;;;;;13.78;96.12;101596.81;4887530;29;20959;-73
2023/08/13 02:50:47;;;;;;;7.13;2.60;;;;;;;13.80;96.41;101601.94;4886081;29;20025;-73
2023/08/13 02:53:12;;;;;;;;;;;;;;;13.82;96.61;101592.53;4883551;29;20063;-74
2023/08/13 02:55:38;;;;;;;5.55;2.60;;;;;;;13.80;96.00;101588.47;4885268;29;20803;-72
2023/08/13 02:58:03;;;;;;;;;;;;;;;13.81;95.75;101592.78;4870609;29;20045;-72
2023/08/13 03:00:29;;;;;;;4.90;3.22;;;;;;;13.79;95.70;101595.75;4885345;29;19919;-72
2023/08/13 03:02:55;;;;;;;;;;;;;;;13.82;95.67;101599.81;4889022;29;20044;-73
2023/08/13 03:05:20;;;;;;;6.10;2.88;;;;;;;13.80;95.78;101605.44;4857672;29;19919;-73
2023/08/13 03:07:46;;;;;;;;;;;;;;;13.76;94.80;101600.88;4886709;29;20490;-74
2023/08/13 03:10:12;;;;;;;6.25;2.65;;;;;;;13.74;95.06;101611.88;4872023;29;19916;-73
2023/08/13 03:12:38;;;;;;;;;;;;;;;13.73;94.64;101604.91;4869598;29;20099;-72
2023/08/13 03:15:05;;;;;;;5.40;2.70;;;;;;;13.70;94.91;101600.06;4863684;29;19915;-75
2023/08/13 03:17:31;;;;;;;6.35;2.85;;;;;;;13.69;94.89;101603.03;4869555;29;20045;-74
2023/08/13 03:19:59;;;;;;;6.35;2.42;;;;;;;13.68;94.57;101598.69;4874721;29;20056;-75
2023/08/13 03:22:25;;;;;;;6.80;2.78;;;;;;;13.65;94.80;101598.16;4899236;29;20036;-72
2023/08/13 03:24:50;;;;;;;8.23;2.88;;;;;;;13.65;95.23;101592.78;4873176;29;20047;-72
2023/08/13 03:27:16;;;;;;;6.10;2.55;;;;;;;13.64;95.20;101595.75;4881911;29;20565;-73
2023/08/13 03:29:42;;;;;;;;;;;;;;;13.62;94.84;101600.59;4870035;29;20398;-73
2023/08/13 03:32:10;;;;;;;5.05;2.63;;;;;;;13.59;95.01;101599.25;4876990;29;20419;-74
2023/08/13 03:34:36;;;;;;;5.22;3.28;;;;;;;13.60;95.34;101600.03;4872248;29;20040;-73
2023/08/13 03:37:01;;;;;;;;;;;;;;;13.60;95.56;101617.00;4888177;29;20044;-72
2023/08/13 03:39:27;;;;;;;4.75;2.97;;;;;;;13.61;95.52;101618.63;4880223;29;20381;-73
2023/08/13 03:41:53;;;;;;;7.93;2.60;;;;;;;13.64;95.71;101614.59;4873553;29;20041;-72
2023/08/13 03:44:19;;;;;;;4.53;2.53;;;;;;;13.64;95.71;101609.22;4874619;29;20103;-74
2023/08/13 03:46:45;;;;;;;;;;;;;;;13.67;96.21;101614.03;4873554;29;20443;-73
2023/08/13 03:49:11;;;;;;;8.57;2.50;;;;;;;13.68;96.26;101606.78;4889577;29;20358;-72
2023/08/13 03:51:37;;;;;;;4.63;2.80;;;;;;;13.69;96.28;101609.22;4871344;29;20052;-74
2023/08/13 03:54:04;;;;;;;5.55;2.42;;;;;;;13.73;96.66;101610.28;4875908;29;20044;-72
2023/08/13 03:56:32;;;;;;;11.07;3.58;;;;;;;13.74;96.73;101601.13;4875705;29;20159;-73
2023/08/13 03:59:00;;;;;;;6.53;2.72;;;;;;;13.76;97.14;101606.25;4876923;29;20036;-72
2023/08/13 04:01:26;;;;;;;5.35;3.35;;;;;;;13.79;97.23;101609.19;4871929;29;20040;-72
2023/08/13 04:03:53;;;;;;;8.00;3.17;;;;;;;13.83;97.43;101596.84;4888573;29;20043;-72
2023/08/13 04:06:20;;;;;;;6.78;3.33;;;;;;;13.87;97.70;101611.34;4869709;29;20061;-72
2023/08/13 04:08:46;;;;;;;4.45;2.67;;;;;;;13.90;97.69;101599.25;4885245;29;20525;-73
2023/08/13 04:11:12;;;;;;;6.30;3.20;;;;;;;13.96;97.44;101598.16;4855891;29;20044;-73
2023/08/13 04:13:37;;;;;;;;;;;;;;;14.02;97.93;101607.03;4873788;29;20051;-73
2023/08/13 04:16:04;;;;;;;5.43;2.92;;;;;;;14.06;98.18;101613.50;4886598;29;19947;-74
2023/08/13 04:18:30;;;;;;;7.30;3.55;;;;;;;14.10;98.33;101606.50;4858582;29;20694;-72
2023/08/13 04:20:56;;;;;;;7.93;2.88;;;;;;;14.13;98.18;101597.84;4859968;29;20088;-72
2023/08/13 04:23:22;;;;;;;7.20;3.40;;;;;;;14.18;98.26;101605.94;4860302;29;20040;-73
2023/08/13 04:25:49;;;;;;;6.57;3.33;;;;;;;14.19;98.04;101604.84;4874955;29;20066;-72
2023/08/13 04:28:14;;;;;;;;;;;;;;;14.20;98.21;101603.78;4860421;29;20060;-74
2023/08/13 04:30:43;;;;;;;6.63;3.53;;;;;;;14.22;97.76;101607.00;4889608;29;19923;-72
2023/08/13 04:33:08;;;;;;;;;;;;;;;14.26;98.17;101605.38;4879954;29;20565;-72
2023/08/13 04:35:34;;;;;;;5.80;3.10;;;;;;;14.27;98.10;101601.59;4881892;29;20744;-72
2023/08/13 04:38:01;;;;;;;8.10;2.80;;;;;;;14.29;97.62;101602.13;4870708;29;20115;-75
2023/08/13 04:40:27;;;;;;;5.30;3.40;;;;;;;14.33;97.90;101608.59;4890256;29;20040;-73
2023/08/13 04:42:53;;;;;;;;;;;;;;;14.36;97.89;101618.84;4873291;29;20051;-72
2023/08/13 04:45:20;;;;;;;5.00;2.85;;;;;;;14.36;98.06;101608.06;4864282;29;19920;-73
2023/08/13 04:47:47;;;;;;;6.85;3.20;;;;;;;14.39;98.32;101607.50;4892612;29;20040;-72
2023/08/13 04:50:14;;;;;;;5.07;3.00;;;;;;;14.41;97.98;101605.31;4875873;29;20037;-73
2023/08/13 04:52:39;;;;;;;;;;;;;;;14.46;97.80;101601.84;4889086;29;20047;-73
2023/08/13 04:55:06;;;;;;;5.95;3.00;;;;;;;14.46;97.85;101602.66;4875512;29;19920;-73
2023/08/13 04:57:33;;;;;;;4.57;3.67;;;;;;;14.50;97.66;101596.75;4859678;29;20063;-74
2023/08/13 04:59:59;;;;;;;;;;;;;;;14.54;98.01;101603.97;4866958;29;20402;-72
2023/08/13 05:02:27;;;;;;;6.50;3.08;;;;;;;14.55;98.19;101607.47;4872617;29;19919;-73
2023/08/13 05:04:54;;;;;;;7.40;3.08;;;;;;;14.55;97.97;101605.59;4875751;29;20044;-74
2023/08/13 05:07:21;;;;;;;5.38;3.20;;;;;;;14.61;97.57;101609.88;4862983;29;20140;-72
2023/08/13 05:09:48;;;;;;;6.93;3.03;;;;;;;14.66;97.47;101600.97;4886543;29;20047;-73
2023/08/13 05:12:13;;;;;;;5.13;2.60;;;;;;;14.69;97.65;101605.81;4875121;29;20055;-73
2023/08/13 05:14:39;;;;;;;;;;;;;;;14.72;97.45;101602.56;4875753;29;20051;-73
2023/08/13 05:17:22;;;;;;;7.68;3.22;;;;;;;14.72;97.60;101599.88;4889623;29;19971;-73
2023/08/13 05:19:49;;;;;;;7.35;2.83;;;;;;;14.76;97.52;101609.00;4872409;29;20126;-73
2023/08/13 05:22:16;;;;;;;7.90;3.20;;;;;;;14.80;97.60;101607.38;4889616;29;20032;-73
2023/08/13 05:24:43;;;;;;;8.57;3.15;;;;;;;14.84;97.42;101602.25;4875667;29;20064;-74
2023/08/13 05:27:09;;;;;;;3.92;2.63;;;;;;;14.88;97.67;101614.88;4876113;29;20038;-74
2023/08/13 05:29:35;;;;;;;5.78;3.60;;;;;;;14.90;97.41;101612.75;4861014;29;20594;-74
2023/08/13 05:32:02;;;;;;;4.75;3.00;;;;;;;14.94;97.11;101613.78;4858856;29;20037;-74
2023/08/13 05:34:30;;;;;;;5.97;3.35;;;;;;;14.95;96.92;101606.50;4884415;29;20784;-73
2023/08/13 05:36:55;;;;;;;;;;;;;;;14.99;97.43;101605.69;4857823;29;20044;-73
2023/08/13 05:39:22;;;;;;;6.75;2.80;;;;;;;14.99;97.39;101602.97;4871716;29;19938;-73
2023/08/13 05:41:48;;;;;;;4.50;2.88;;;;;;;15.02;97.25;101607.81;4861634;29;20138;-72
2023/08/13 05:44:13;;;;;;;;;;;;;;;15.06;97.58;101609.97;4856820;29;20131;-74
2023/08/13 05:46:39;;;;;;;5.95;3.38;;;;;;;15.06;97.43;101601.88;4869299;29;20142;-74
2023/08/13 05:49:05;;;;;;;;;;;;;;;15.12;97.36;101608.84;4888399;29;20071;-73
2023/08/13 05:51:32;;;;;;;5.35;2.70;;;;;;;15.12;96.76;101606.97;4872412;29;19931;-73
2023/08/13 05:53:57;;;;;;;;;;;;;;;15.19;97.06;101603.94;4874743;29;20036;-72
2023/08/13 05:56:23;;;;;;;5.07;2.85;;;;;;;15.21;96.64;101612.56;4889922;29;20478;-73
2023/08/13 05:58:49;;;;;;;;;;;;;;;15.27;97.64;101601.47;4887548;29;20040;-73
2023/08/13 06:01:15;;;;;;;7.57;3.10;;;;;;;15.28;97.31;101596.88;4887543;29;19966;-74
2023/08/13 06:03:40;;;;;;;;;;;;;;;15.32;97.18;101600.63;4890063;29;20159;-74
2023/08/13 06:06:06;;;;;;;8.05;3.30;;;;;;;15.33;97.17;101604.94;4873645;29;19971;-72
2023/08/13 06:08:32;;;;;;;;;;;;;;;15.40;97.46;101602.72;4854596;29;20047;-72
2023/08/13 06:10:57;;;;;;;6.07;3.33;;;;;;;15.46;97.31;101603.50;4886382;29;19916;-72
2023/08/13 06:13:23;;;;;;;;;;;;;;;15.57;97.97;101603.13;4871622;29;20049;-73
2023/08/13 06:15:48;;;;;;;6.03;3.30;;;;;;;15.60;98.08;101598.25;4889021;29;19916;-74
2023/08/13 06:18:14;;;;;;;;;;;;;;;15.65;97.74;101600.97;4854824;29;20044;-72
2023/08/13 06:20:40;;;;;;;8.60;4.25;;;;;;;15.62;97.21;101606.91;4872828;29;19919;-74
2023/08/13 06:23:05;;;;;;;7.38;3.40;;;;;;;15.72;97.71;101612.25;4870904;29;20046;-73
2023/08/13 06:25:31;;;;;;;;;;;;;;;15.83;97.57;101624.56;4890521;29;20033;-74
2023/08/13 06:27:56;;;;;;;10.00;3.30;;;;;;;15.89;97.35;101628.81;4870798;29;20594;-73
2023/08/13 06:30:22;;;;;;;;;;;;;;;15.97;97.46;101622.81;4872567;29;20056;-72
2023/08/13 06:32:54;;;;;;;9.13;3.70;;;;;;;15.98;97.42;101618.22;4885009;29;20361;-71
2023/08/13 06:35:20;;;;;;;7.53;3.47;;;;;;;16.06;96.70;101614.91;4868631;29;20036;-72
2023/08/13 06:37:46;;;;;;;;;;;;;;;16.19;97.20;101616.09;4885653;29;20059;-73
2023/08/13 06:40:11;;;;;;;9.90;3.70;;;;;;;16.24;96.38;101627.69;4887857;29;19919;-73
2023/08/13 06:42:37;;;;;;;9.40;3.75;;;;;;;16.33;96.13;101627.88;4886247;29;20104;-72
2023/08/13 06:45:04;;;;;;;8.05;3.83;;;;;;;16.48;95.52;101625.00;4870602;29;20510;-73
2023/08/13 06:47:30;;;;;;;7.55;3.78;;;;;;;16.62;94.96;101615.09;4866678;29;20763;-72
2023/08/13 06:49:56;;;;;;;9.63;3.78;;;;;;;16.74;94.57;101628.25;4883991;29;20056;-70
2023/08/13 06:52:24;;;;;;;;;;;;;;;16.87;94.05;101632.97;4886582;29;20045;-73
2023/08/13 06:54:49;;;;;;;9.23;3.58;;;;;;;17.00;92.71;101614.38;4859758;29;19919;-72
2023/08/13 06:57:17;;;;;;;6.70;3.40;;;;;;;17.12;92.07;101617.47;4882797;29;20036;-72
2023/08/13 06:59:43;;;;;;;6.25;3.20;;;;;;;17.26;91.37;101622.94;4868847;29;20035;-75
2023/08/13 07:02:09;;;;;;;4.65;2.83;;;;;;;17.35;90.51;101613.88;4873426;29;20043;-70
2023/08/13 07:04:35;;;;;;;6.47;3.28;;;;;;;17.46;90.90;101620.75;4884406;29;20124;-74
2023/08/13 07:07:01;;;;;;;4.75;2.40;;;;;;;17.55;90.88;101620.91;4873316;29;20036;-72
2023/08/13 07:09:28;;;;;;;5.25;2.90;;;;;;;17.62;90.20;101605.06;4887854;29;20024;-72
2023/08/13 07:11:54;;;;;;;6.03;3.55;;;;;;;17.71;89.75;101616.88;4874804;29;20056;-72
2023/08/13 07:14:19;;;;;;;7.40;3.55;;;;;;;17.86;89.14;101617.69;4887893;29;20056;-72
2023/08/13 07:16:46;;;;;;;6.63;3.22;;;;;;;17.99;88.51;101611.50;4878470;29;20048;-72
2023/08/13 07:19:12;;;;;;;6.88;2.65;;;;;;;18.10;87.41;101604.81;4873306;29;20044;-74
2023/08/13 07:21:38;;;;;;;6.43;2.53;;;;;;;18.26;87.47;101614.25;4873703;29;20577;-71
2023/08/13 07:24:04;;;;;;;7.25;3.17;;;;;;;18.42;87.17;101616.69;4888006;29;20063;-73
2023/08/13 07:26:30;;;;;;;5.22;2.75;;;;;;;18.58;85.75;101615.28;4889066;29;20040;-72
2023/08/13 07:28:56;;;;;;;9.15;3.22;;;;;;;18.67;85.43;101616.19;4871401;29;20813;-73
2023/08/13 07:31:22;;;;;;;6.18;3.13;;;;;;;18.81;83.91;101619.69;4885203;29;20028;-74
2023/08/13 07:33:48;;;;;;;8.18;3.42;;;;;;;18.81;83.41;101622.41;4900201;29;20047;-71
2023/08/13 07:36:13;;;;;;;5.15;3.28;;;;;;;18.86;83.19;101620.72;4869104;29;20040;-73
2023/08/13 07:38:39;;;;;;;6.25;2.67;;;;;;;18.87;83.44;101635.88;4883677;29;20507;-72
2023/08/13 07:41:05;;;;;;;6.55;2.60;;;;;;;18.95;84.13;101630.53;4874820;29;20048;-71
2023/08/13 07:43:34;;;;;;;7.22;3.40;;;;;;;19.10;84.46;101637.53;4870485;29;20068;-72
2023/08/13 07:45:59;;;;;;;8.32;2.80;;;;;;;19.27;83.04;101629.56;4902377;29;20040;-71
2023/08/13 07:48:25;;;;;;;8.30;2.88;;;;;;;19.34;80.68;101635.38;4852903;29;20578;-74
2023/08/13 07:50:51;;;;;;;8.02;3.03;;;;;;;19.45;80.55;101627.81;4871015;29;20068;-72
2023/08/13 07:53:18;;;;;;;8.73;2.45;;;;;;;19.54;80.58;101641.44;4871297;29;20040;-73
2023/08/13 07:55:46;;;;;;;10.23;3.45;;;;;;;19.60;80.27;101635.63;4855819;29;20049;-71
2023/08/13 07:58:12;;;;;;;6.90;2.63;;;;;;;19.74;78.18;101643.69;4871782;29;20392;-72
2023/08/13 08:00:39;;;;;;;6.40;2.30;;;;;;;19.73;77.49;101639.38;4886068;29;20144;-71
2023/08/13 08:03:05;;;;;;;7.57;2.92;;;;;;;19.78;77.57;101622.97;4883893;29;20116;-71
2023/08/13 08:05:31;;;;;;;5.13;2.50;;;;;;;19.78;76.66;101624.84;4882126;29;20037;-72
2023/08/13 08:07:56;;;;;;;10.07;3.25;;;;;;;19.86;76.21;101643.16;4883798;29;20036;-75
2023/08/13 08:10:23;;;;;;;3.88;1.95;;;;;;;19.94;75.45;101641.59;4899017;29;20032;-72
2023/08/13 08:12:49;;;;;;;7.13;2.65;;;;;;;19.96;75.03;101632.00;4885097;29;20052;-72
2023/08/13 08:15:15;;;;;;;4.82;2.20;;;;;;;19.98;74.52;101628.97;4871770;29;20041;-72
2023/08/13 08:17:40;;;;;;;7.13;2.75;;;;;;;20.00;78.39;101621.31;4882061;29;20044;-72
2023/08/13 08:20:07;;;;;;;9.90;2.22;;;;;;;19.92;76.18;101624.78;4888005;29;20032;-72
2023/08/13 08:22:33;;;;;;;5.93;2.00;;;;;;;19.95;75.94;101635.03;4898542;29;20041;-72
2023/08/13 08:24:59;;;;;;;5.93;2.10;;;;;;;19.95;76.36;101624.16;4885709;29;20852;-72
2023/08/13 08:27:25;;;;;;;4.45;1.60;;;;;;;19.96;79.42;101631.19;4871763;29;20041;-71
2023/08/13 08:29:50;;;;;;;5.53;2.47;;;;;;;20.03;76.16;101628.84;4869308;29;20045;-72
2023/08/13 08:32:16;;;;;;;5.40;2.08;;;;;;;20.10;73.65;101637.34;4868523;29;20086;-72
2023/08/13 08:34:42;;;;;;;5.00;1.95;;;;;;;20.21;73.52;101643.34;4888417;29;20131;-72
2023/08/13 08:37:10;;;;;;;7.38;1.83;;;;;;;20.27;70.73;101637.44;4885473;29;20051;-73
2023/08/13 08:39:36;;;;;;;5.53;1.92;;;;;;;20.33;72.86;101652.53;4871713;29;20036;-71
2023/08/13 08:42:02;;;;;;;7.75;2.00;;;;;;;20.37;74.78;101637.16;4869994;29;20104;-75
2023/08/13 08:44:30;;;;;;;5.03;1.75;;;;;;;20.43;77.32;101635.09;4871956;29;20089;-70
2023/08/13 08:46:57;;;;;;;7.40;2.25;;;;;;;20.49;74.75;101636.59;4870740;29;20032;-71
2023/08/13 08:49:24;;;;;;;6.18;2.10;;;;;;;20.56;70.85;101639.66;4854078;29;20041;-76
2023/08/13 08:51:50;;;;;;;7.55;2.17;;;;;;;20.58;72.13;101648.31;4889392;29;20041;-72
2023/08/13 08:54:17;;;;;;;5.50;2.17;;;;;;;20.56;71.76;101655.19;4869710;29;20043;-72
2023/08/13 08:56:43;;;;;;;8.68;2.40;;;;;;;20.61;70.71;101646.91;4871893;29;20036;-72
2023/08/13 08:59:09;;;;;;;5.97;2.05;;;;;;;20.71;70.35;101635.69;4879225;29;20047;-72
2023/08/13 09:01:34;;;;;;;4.18;1.60;;;;;;;20.84;71.01;101634.78;4887173;29;20760;-72
2023/08/13 09:04:01;;;;;;;5.00;1.98;;;;;;;20.90;69.67;101628.06;4877245;29;20183;-73
2023/08/13 09:06:53;;;;;;;5.15;1.88;;;;;;;20.88;68.49;101624.88;4872311;29;20037;-71
2023/08/13 09:09:19;;;;;;;5.28;1.50;;;;;;;20.86;69.89;101626.28;4882276;29;20053;-73
2023/08/13 09:11:46;;;;;;;6.88;1.75;;;;;;;20.99;68.59;101619.91;4871510;29;20052;-73
2023/08/13 09:14:13;;;;;;;8.00;2.45;;;;;;;21.08;66.97;101625.38;4856036;29;20035;-71
2023/08/13 09:16:45;;;;;;;3.95;1.80;;;;;;;21.23;69.46;101624.91;4868763;29;20059;-72
2023/08/13 09:19:11;;;;;;;4.55;1.42;;;;;;;21.32;69.00;101630.38;4876858;29;20033;-73
2023/08/13 09:21:37;;;;;;;6.82;1.85;;;;;;;21.40;69.14;101629.56;4872076;29;20743;-73
2023/08/13 09:24:03;;;;;;;5.15;1.92;;;;;;;21.45;66.53;101622.03;4869389;29;20445;-72
2023/08/13 09:26:29;;;;;;;5.10;1.52;;;;;;;21.49;66.18;101625.72;4870348;29;20486;-71
2023/08/13 09:28:56;;;;;;;6.82;1.92;;;;;;;21.55;67.08;101615.47;4880921;29;20047;-73
2023/08/13 09:31:25;;;;;;;3.78;1.17;;;;;;;21.59;66.87;101621.84;4867980;29;20041;-75
2023/08/13 09:33:51;;;;;;;4.38;2.15;;;;;;;21.64;69.17;101629.06;4885196;29;20733;-72
2023/08/13 09:36:17;;;;;;;5.03;1.33;;;;;;;21.69;67.56;101618.81;4859598;29;20134;-73
2023/08/13 09:38:42;;;;;;;5.95;1.60;;;;;;;21.79;66.60;101623.13;4868842;29;20036;-73
2023/08/13 09:41:11;;;;;;;4.18;1.48;;;;;;;21.88;66.54;101623.09;4884334;29;20028;-73
2023/08/13 09:43:39;;;;;;;4.88;1.63;;;;;;;21.90;64.70;101618.91;4868409;29;20052;-73
2023/08/13 09:46:06;;;;;;;4.15;1.20;;;;;;;22.00;64.21;101621.28;4882851;29;20060;-71
2023/08/13 09:48:32;;;;;;;4.15;1.65;;;;;;;22.07;64.28;101618.84;4868992;29;20033;-71
2023/08/13 09:51:01;;;;;;;4.18;1.63;;;;;;;22.13;64.88;101613.25;4856371;29;20028;-75
2023/08/13 09:53:29;;;;;;;6.00;1.85;;;;;;;22.31;68.59;101617.53;4886021;29;20048;-72
2023/08/13 09:55:59;;;;;;;3.47;1.50;;;;;;;22.42;63.43;101609.75;4902386;29;20123;-73
2023/08/13 09:58:24;;;;;;;4.07;1.35;;;;;;;22.58;64.20;101614.34;4855936;29;20037;-72
2023/08/13 10:00:51;;;;;;;5.07;1.55;;;;;;;22.65;63.88;101619.28;4884826;29;20052;-72
2023/08/13 10:03:18;;;;;;;3.85;1.35;;;;;;;22.71;60.91;101611.72;4870774;29;20052;-71
2023/08/13 10:05:44;;;;;;;4.05;1.40;;;;;;;22.67;61.97;101611.56;4900992;29;20048;-71
2023/08/13 10:08:10;;;;;;;5.35;1.67;;;;;;;22.63;63.04;101615.28;4884120;29;20039;-71
2023/08/13 10:10:37;;;;;;;5.43;1.42;;;;;;;22.62;63.67;101609.00;4872152;29;20095;-76
2023/08/13 10:13:04;;;;;;;5.82;2.17;;;;;;;22.54;63.39;101602.47;4900355;29;20115;-75
2023/08/13 10:15:36;;;;;;;5.65;2.53;;;;;;;22.39;64.30;101615.88;4885508;29;20115;-76
2023/08/13 10:18:02;;;;;;;34.60;21.02;;;;;;;22.39;65.00;101616.69;4882645;29;20040;-76
2023/08/13 10:20:29;;;;;;;5.30;2.67;;;;;;;22.37;63.52;101607.25;4877929;29;20032;-78
2023/08/13 10:22:54;;;;;;;5.13;2.50;;;;;;;22.47;65.39;101607.66;4855574;29;20052;-74
2023/08/13 10:25:33;;;;;;;3.10;1.50;;;;;;;22.64;64.37;101605.97;4869602;29;20029;-74
2023/08/13 10:28:18;;;;;;;4.97;1.98;;;;;;;22.72;63.44;101602.38;4885609;29;20048;-73
2023/08/13 10:30:43;;;;;;;3.53;1.45;;;;;;;22.82;62.52;101605.50;4871328;29;20047;-76
2023/08/13 10:33:09;;;;;;;4.28;1.90;;;;;;;22.86;64.41;101598.28;4854424;29;20036;-74
2023/08/13 10:35:37;;;;;;;4.28;1.52;;;;;;;23.00;63.09;101608.97;4883026;29;20068;-77
2023/08/13 10:38:04;;;;;;;5.55;2.00;;;;;;;22.91;63.27;101615.63;4884103;29;20093;-75
2023/08/13 10:40:30;;;;;;;3.90;1.33;;;;;;;22.79;64.14;101610.84;4875185;29;20033;-76
2023/08/13 10:42:57;;;;;;;4.43;1.85;;;;;;;22.67;62.89;101619.75;4894284;29;20029;-78
2023/08/13 10:45:24;;;;;;;4.68;1.08;;;;;;;22.57;63.76;101604.56;4874871;29;20081;-76
2023/08/13 10:47:55;;;;;;;2.95;1.50;;;;;;;22.66;69.24;101611.91;4867806;29;20108;-74
2023/08/13 10:50:30;;;;;;;3.75;1.58;;;;;;;22.57;63.40;101612.75;4873085;29;20040;-79
2023/08/13 10:53:01;;;;;;;5.72;1.90;;;;;;;22.50;67.15;101617.94;4877983;29;20040;-75
2023/08/13 10:55:30;;;;;;;4.63;1.35;;;;;;;22.60;66.94;101612.06;4882525;29;20167;-75
2023/08/13 10:57:56;;;;;;;4.80;1.60;;;;;;;22.75;64.53;101615.34;4893063;29;20049;-75
2023/08/13 11:00:24;;;;;;;4.25;1.40;;;;;;;22.67;66.45;101616.22;4875595;29;20041;-74
2023/08/13 11:03:20;;;;;;;4.40;1.42;;;;;;;22.65;62.87;101610.28;4864837;29;20128;-74
2023/08/13 11:05:47;;;;;;;2.92;1.25;;;;;;;22.66;65.31;101620.09;4871419;29;20045;-76
2023/08/13 11:08:17;;;;;;;4.47;1.52;;;;;;;22.58;66.75;101622.53;4872532;29;20395;-75
2023/08/13 11:10:47;;;;;;;4.80;1.30;;;;;;;22.58;67.02;101614.34;4891394;29;20070;-73
2023/08/13 11:13:14;;;;;;;3.75;1.42;;;;;;;22.62;65.99;101617.19;4869469;29;20672;-75
2023/08/13 11:15:41;;;;;;;4.20;1.20;;;;;;;22.80;64.15;101605.06;4857890;29;20051;-74
2023/08/13 11:18:07;;;;;;;4.85;1.50;;;;;;;23.05;62.37;101602.50;4890297;29;20116;-78
2023/08/13 11:20:33;;;;;;;3.20;1.10;;;;;;;23.21;61.45;101608.16;4871426;29;20048;-77
2023/08/13 11:22:58;;;;;;;3.10;1.38;;;;;;;23.36;61.29;101602.06;4875286;29;20131;-76
2023/08/13 11:25:26;;;;;;;2.65;1.02;;;;;;;23.55;61.63;101605.13;4873338;29;20043;-76
2023/08/13 11:27:53;;;;;;;4.18;1.25;;;;;;;23.60;61.37;101604.09;4888576;29;20032;-75
2023/08/13 11:30:18;;;;;;;2.45;1.35;;;;;;;23.45;60.36;101607.47;4889959;29;20036;-78
2023/08/13 11:32:44;;;;;;;3.00;1.42;;;;;;;23.25;60.43;101603.63;4881771;29;20059;-77
2023/08/13 11:35:10;;;;;;;3.53;1.50;;;;;;;23.21;61.96;101602.69;4877245;29;20123;-74